Airfield :
LOGIN :

Register | Disclaimer

   EN    FR    IT 

 










Legend :    VFR   Marginal VFR   IFR   Intensive IFR   Very Intensive IFR
Visi :
Ceiling :
>= 8 km
>= 3000ft
5 to 8 km
1000 to 3000 ft
1500m to 5 km
500 to 1000 ft
800 to 1500m
200 to 500 ft
< 800m
< 200 ft
Symbols :   Thunderstorms  Fog  Heavy snow  Heavy precipitations  Wind > 20 kt
SIGMETs :     Misc.  Thunderstorms  Icing  Turbulence  Mountain Waves  Volcanic Ashes







- Airport Elevation : 56 ft
- IATA code : BZR
- Download approach charts


LFMU - Beziers / Vias

CURRENT METAR :
  • 270300Z AUTO 30008KT CAVOK 08/02 Q1013 TEMPO RA

EXPIRED METARs :
  • 270230Z AUTO 33004KT 290V360 CAVOK 08/02 Q1013 TEMPO RA
  • 270200Z AUTO 30007KT CAVOK 08/02 Q1013
  • 270130Z AUTO 28009KT CAVOK 08/02 Q1014
  • 270100Z AUTO 30007KT CAVOK 08/02 Q1014
  • 270030Z AUTO 30008KT CAVOK 08/02 Q1013

TAF TAF LFMU
Valid from the 27 at 03:00 until the 28 at 03:00 UTC


270200Z 2703/2803 28010KT CAVOK
PROB30
TEMPO 2703/2708 RA BKN015
TEMPO 2713/2723 30015G30KT
ATIS : +33 4 67 90 88 88
No reported NOTAMs for that airfield.
2 SIGMETs reported for the Marseille FIR (LFMM) :
 
Severe turbulence
LFMM SIGMET 1 VALID 270300/270700 LFPW
LFMM MARSEILLE FIR/UIR SEV TURB FCST WI N4630 E00300 - N4630 E00545 - N4515 E00245 FL140/220 STNR NC=
Embedded thunderstorms
LFMM SIGMET 1 VALID 262300/270300 LFPW
LFMM MARSEILLE FIR/UIR EMBD TS FCST S OF LINE N4030 E00800 - N3900 E00515 TOP FL350 STNR NC=



MET'MAP, your aeronautical weather chart ! - Copyright ORBIFLY December 2007 - Disclaimer

ORBIFLY MET'MAP TEAM :

Programming & Development : Alexandra Zaïnal
Concept & Development : Baudouin d'Aumeries
Co-Development & Prog : Marc-Olivier Méhu
Technical & hardware support : Manuel Goepfert

Contact : metmap@orbifly.com




SOURCES & CREDITS :

   NOAA